Time;durP1;ratioP1;P1;durP2;ratioP2;P2;SDS_P1;SDS_P2;PMS_P1;PMS_P2;Temp;Humidity;BMP_temperature;BMP_pressure;BME280_temperature;BME280_humidity;BME280_pressure;Samples;Min_cycle;Max_cycle;Signal;HPM_P1;HPM_P2
2022/10/28 00:02:10;;;;;;;8.07;3.03;;;;;;;;;;5036591;28;20042;-78
2022/10/28 00:04:35;;;;;;;12.73;3.58;;;;;;;;;;5027675;28;20061;-78
2022/10/28 00:07:01;;;;;;;7.72;3.15;;;;;;;;;;5027979;28;20026;-78
2022/10/28 00:09:26;;;;;;;7.53;3.13;;;;;;;;;;5043041;28;20529;-77
2022/10/28 00:11:51;;;;;;;9.23;3.08;;;;;;;;;;5038994;28;20046;-78
2022/10/28 00:14:17;;;;;;;10.68;3.28;;;;;;;;;;5046769;28;20090;-78
2022/10/28 00:16:42;;;;;;;7.28;3.03;;;;;;;;;;5047250;28;20528;-78
2022/10/28 00:19:10;;;;;;;7.80;3.13;;;;;;;;;;5043835;28;20068;-77
2022/10/28 00:21:38;;;;;;;6.30;2.95;;;;;;;;;;5040935;28;20032;-78
2022/10/28 00:24:04;;;;;;;6.72;3.00;;;;;;;;;;5046416;28;20029;-78
2022/10/28 00:26:31;;;;;;;6.68;3.38;;;;;;;;;;5047519;28;20118;-78
2022/10/28 00:28:59;;;;;;;7.03;3.15;;;;;;;;;;5035133;28;20415;-76
2022/10/28 00:31:26;;;;;;;9.02;3.15;;;;;;;;;;5025370;28;20033;-76
2022/10/28 00:33:52;;;;;;;5.13;2.53;;;;;;;;;;5027336;28;20032;-76
2022/10/28 00:36:27;;;;;;;6.53;3.45;;;;;;;;;;5026133;28;20033;-75
2022/10/28 00:38:54;;;;;;;6.70;3.13;;;;;;;;;;5030772;28;20078;-76
2022/10/28 00:41:32;;;;;;;5.50;2.78;;;;;;;;;;5046615;28;20515;-76
2022/10/28 00:44:00;;;;;;;11.13;3.17;;;;;;;;;;5047004;28;20033;-76
2022/10/28 00:46:28;;;;;;;8.45;2.58;;;;;;;;;;5046402;28;20052;-76
2022/10/28 00:49:17;;;;;;;9.10;3.42;;;;;;;;;;5046255;28;20029;-76
2022/10/28 00:51:46;;;;;;;10.98;2.92;;;;;;;;;;5047198;28;20534;-75
2022/10/28 00:54:13;;;;;;;7.05;3.30;;;;;;;;;;5040913;28;20070;-75
2022/10/28 00:56:44;;;;;;;6.03;2.63;;;;;;;;;;5053703;28;20017;-76
2022/10/28 00:59:24;;;;;;;12.25;3.78;;;;;;;;;;5046913;28;20074;-76
2022/10/28 01:01:50;;;;;;;4.90;3.03;;;;;;;;;;5047328;28;20517;-76
2022/10/28 01:04:16;;;;;;;7.32;3.17;;;;;;;;;;5039040;28;20026;-75
2022/10/28 01:06:41;;;;;;;7.43;3.17;;;;;;;;;;5044806;28;20028;-76
2022/10/28 01:09:07;;;;;;;12.45;3.22;;;;;;;;;;5046161;28;20563;-76
2022/10/28 01:11:51;;;;;;;7.63;3.28;;;;;;;;;;5044279;28;20601;-76
2022/10/28 01:14:20;;;;;;;10.30;3.15;;;;;;;;;;5046568;28;20059;-76
2022/10/28 01:17:08;;;;;;;9.52;2.83;;;;;;;;;;5046984;28;20044;-76
2022/10/28 01:20:07;;;;;;;10.90;2.88;;;;;;;;;;5045686;28;20033;-76
2022/10/28 01:23:17;;;;;;;7.05;2.92;;;;;;;;;;5047186;28;20435;-76
2022/10/28 01:26:09;;;;;;;10.40;3.22;;;;;;;;;;5031994;28;20025;-75
2022/10/28 01:29:05;;;;;;;11.48;3.50;;;;;;;;;;5034618;28;20033;-76
2022/10/28 01:31:49;;;;;;;10.50;3.08;;;;;;;;;;5046202;28;20040;-76
2022/10/28 01:34:44;;;;;;;13.02;3.28;;;;;;;;;;5044864;28;20094;-76
2022/10/28 01:37:16;;;;;;;8.15;3.08;;;;;;;;;;5046504;28;20037;-75
2022/10/28 01:39:50;;;;;;;7.32;2.85;;;;;;;;;;5046143;28;20025;-76
2022/10/28 01:42:18;;;;;;;7.85;3.17;;;;;;;;;;5027719;28;20033;-75
2022/10/28 01:45:08;;;;;;;8.48;3.30;;;;;;;;;;5046496;28;20094;-76
2022/10/28 01:47:40;;;;;;;6.45;3.10;;;;;;;;;;5046540;28;20057;-75
2022/10/28 01:50:13;;;;;;;7.35;2.75;;;;;;;;;;5024987;28;20030;-76
2022/10/28 01:52:40;;;;;;;10.23;3.50;;;;;;;;;;5034426;28;20110;-76
2022/10/28 01:55:29;;;;;;;11.95;3.50;;;;;;;;;;5046611;28;20108;-76
2022/10/28 01:57:57;;;;;;;8.48;3.17;;;;;;;;;;5046402;28;20037;-76
2022/10/28 02:00:23;;;;;;;13.50;3.92;;;;;;;;;;5045714;28;20017;-76
2022/10/28 02:02:49;;;;;;;10.93;3.30;;;;;;;;;;5045861;28;20021;-74
2022/10/28 02:05:37;;;;;;;9.32;3.05;;;;;;;;;;5024226;28;20034;-76
2022/10/28 02:08:14;;;;;;;9.05;3.58;;;;;;;;;;5026675;28;20041;-76
2022/10/28 02:10:48;;;;;;;9.80;3.83;;;;;;;;;;5026321;28;20038;-76
2022/10/28 02:13:14;;;;;;;11.35;3.35;;;;;;;;;;5025119;28;20549;-76
2022/10/28 02:15:51;;;;;;;13.43;3.28;;;;;;;;;;5026649;28;20037;-76
2022/10/28 02:18:34;;;;;;;8.88;3.30;;;;;;;;;;5026602;28;20108;-75
2022/10/28 02:21:09;;;;;;;7.85;2.95;;;;;;;;;;5029688;28;20021;-77
2022/10/28 02:23:46;;;;;;;10.50;3.20;;;;;;;;;;5046664;28;20029;-75
2022/10/28 02:26:47;;;;;;;10.02;3.47;;;;;;;;;;5049831;28;20051;-76
2022/10/28 02:29:26;;;;;;;16.15;3.95;;;;;;;;;;5048047;28;20167;-75
2022/10/28 02:31:57;;;;;;;7.68;3.83;;;;;;;;;;5050086;28;20110;-76
2022/10/28 02:34:27;;;;;;;6.18;3.22;;;;;;;;;;5049543;28;20507;-77
2022/10/28 02:36:56;;;;;;;10.57;3.50;;;;;;;;;;5049926;28;20040;-78
2022/10/28 02:39:28;;;;;;;6.25;2.70;;;;;;;;;;5040540;28;20025;-77
2022/10/28 02:42:02;;;;;;;7.75;2.88;;;;;;;;;;5050161;28;20021;-77
2022/10/28 02:44:32;;;;;;;10.82;3.53;;;;;;;;;;5048135;28;20057;-77
2022/10/28 02:47:04;;;;;;;7.63;3.05;;;;;;;;;;5048150;28;20033;-78
2022/10/28 02:49:30;;;;;;;8.98;3.10;;;;;;;;;;5049698;28;20033;-78
2022/10/28 02:52:04;;;;;;;10.23;3.13;;;;;;;;;;5045504;28;20033;-75
2022/10/28 02:54:44;;;;;;;10.60;3.30;;;;;;;;;;5048845;28;20521;-75
2022/10/28 02:57:14;;;;;;;14.90;3.80;;;;;;;;;;5049282;28;20028;-70
2022/10/28 02:59:39;;;;;;;8.20;3.47;;;;;;;;;;5048268;28;20028;-75
2022/10/28 03:02:05;;;;;;;9.20;3.38;;;;;;;;;;5049482;28;20029;-75
2022/10/28 03:04:30;;;;;;;13.10;3.78;;;;;;;;;;5045109;28;20040;-75
2022/10/28 03:06:55;;;;;;;11.48;3.80;;;;;;;;;;5047764;28;20443;-75
2022/10/28 03:09:21;;;;;;;8.25;3.47;;;;;;;;;;5049032;28;20534;-75
2022/10/28 03:11:46;;;;;;;9.45;3.65;;;;;;;;;;5049107;28;20138;-75
2022/10/28 03:14:11;;;;;;;7.25;3.25;;;;;;;;;;5033572;28;20584;-74
2022/10/28 03:16:37;;;;;;;11.65;3.40;;;;;;;;;;5044953;28;20033;-75
2022/10/28 03:19:02;;;;;;;9.73;3.78;;;;;;;;;;5047037;28;20037;-75
2022/10/28 03:21:27;;;;;;;11.55;3.80;;;;;;;;;;5048031;28;20028;-75
2022/10/28 03:23:53;;;;;;;11.13;3.80;;;;;;;;;;5043754;28;20031;-75
2022/10/28 03:26:18;;;;;;;7.07;3.33;;;;;;;;;;5047578;28;20033;-76
2022/10/28 03:28:43;;;;;;;6.82;3.40;;;;;;;;;;5048531;28;20048;-75
2022/10/28 03:31:08;;;;;;;8.65;3.88;;;;;;;;;;5048101;28;20756;-75
2022/10/28 03:33:34;;;;;;;8.18;3.83;;;;;;;;;;5048656;28;20577;-75
2022/10/28 03:35:59;;;;;;;10.73;3.30;;;;;;;;;;5030804;28;20041;-75
2022/10/28 03:38:24;;;;;;;12.85;3.58;;;;;;;;;;5027628;28;20037;-75
2022/10/28 03:40:50;;;;;;;11.77;3.65;;;;;;;;;;5047945;28;20062;-75
2022/10/28 03:43:16;;;;;;;9.48;3.42;;;;;;;;;;5048718;28;20040;-76
2022/10/28 03:45:42;;;;;;;7.28;3.15;;;;;;;;;;5048199;28;20041;-75
2022/10/28 03:48:07;;;;;;;8.77;3.50;;;;;;;;;;5045203;28;20024;-77
2022/10/28 03:50:33;;;;;;;11.02;3.45;;;;;;;;;;5055450;28;20029;-78
2022/10/28 03:52:58;;;;;;;12.90;3.53;;;;;;;;;;5067148;28;20036;-77
2022/10/28 03:55:24;;;;;;;11.75;3.50;;;;;;;;;;5062983;28;20085;-77
2022/10/28 03:57:50;;;;;;;9.38;3.50;;;;;;;;;;5045380;28;20048;-78
2022/10/28 04:00:15;;;;;;;10.00;3.47;;;;;;;;;;5048482;28;20459;-77
2022/10/28 04:02:41;;;;;;;8.80;3.60;;;;;;;;;;5048562;28;20021;-78
2022/10/28 04:05:07;;;;;;;13.23;4.22;;;;;;;;;;5047627;28;20464;-78
2022/10/28 04:07:32;;;;;;;10.27;3.80;;;;;;;;;;5048464;28;20040;-78
2022/10/28 04:09:57;;;;;;;10.30;3.38;;;;;;;;;;5045289;28;20479;-77
2022/10/28 04:12:23;;;;;;;9.02;3.38;;;;;;;;;;5046098;28;20029;-77
2022/10/28 04:14:48;;;;;;;11.80;3.53;;;;;;;;;;5048185;28;20515;-77
2022/10/28 04:17:13;;;;;;;10.50;3.45;;;;;;;;;;5048011;28;20044;-78
2022/10/28 04:19:39;;;;;;;7.50;3.45;;;;;;;;;;5047932;28;20033;-78
2022/10/28 04:22:04;;;;;;;14.40;3.92;;;;;;;;;;5047516;28;20045;-77
2022/10/28 04:24:30;;;;;;;10.05;3.00;;;;;;;;;;5046248;28;20040;-77
2022/10/28 04:26:55;;;;;;;13.02;3.50;;;;;;;;;;5042562;28;20013;-78
2022/10/28 04:29:20;;;;;;;9.05;2.92;;;;;;;;;;5026607;28;20040;-77
2022/10/28 04:31:45;;;;;;;10.45;3.15;;;;;;;;;;5027316;28;20065;-78
2022/10/28 04:34:11;;;;;;;8.90;3.45;;;;;;;;;;5026374;28;20637;-77
2022/10/28 04:36:36;;;;;;;12.10;3.30;;;;;;;;;;5033258;28;20029;-77
2022/10/28 04:39:02;;;;;;;7.43;2.78;;;;;;;;;;5042194;28;20509;-77
2022/10/28 04:41:27;;;;;;;10.90;3.70;;;;;;;;;;5045834;28;20041;-77
2022/10/28 04:43:55;;;;;;;17.52;4.25;;;;;;;;;;5046869;28;20466;-78
2022/10/28 04:46:20;;;;;;;9.75;3.22;;;;;;;;;;5046915;28;20041;-77
2022/10/28 04:48:46;;;;;;;11.70;4.35;;;;;;;;;;5041968;28;20040;-77
2022/10/28 04:51:12;;;;;;;20.95;4.07;;;;;;;;;;5030351;28;20039;-77
2022/10/28 04:53:37;;;;;;;7.78;3.28;;;;;;;;;;5028042;28;20025;-78
2022/10/28 04:56:02;;;;;;;11.48;4.40;;;;;;;;;;5026908;28;20042;-78
2022/10/28 04:58:28;;;;;;;11.95;3.88;;;;;;;;;;5027309;28;20041;-77
2022/10/28 05:00:53;;;;;;;13.15;3.65;;;;;;;;;;5028121;28;20103;-77
2022/10/28 05:03:18;;;;;;;11.50;3.47;;;;;;;;;;5025687;28;20033;-77
2022/10/28 05:05:44;;;;;;;9.10;3.17;;;;;;;;;;5026011;28;20490;-78
2022/10/28 05:08:09;;;;;;;15.20;4.03;;;;;;;;;;5027287;28;20029;-78
2022/10/28 05:10:34;;;;;;;16.23;4.20;;;;;;;;;;5040480;28;20033;-77
2022/10/28 05:13:00;;;;;;;8.73;3.47;;;;;;;;;;5026886;28;20038;-77
2022/10/28 05:15:25;;;;;;;13.07;3.90;;;;;;;;;;5042393;28;20025;-77
2022/10/28 05:17:51;;;;;;;12.93;3.97;;;;;;;;;;5027565;28;20025;-78
2022/10/28 05:20:17;;;;;;;10.85;3.85;;;;;;;;;;5043182;28;20041;-77
2022/10/28 05:22:52;;;;;;;11.15;4.25;;;;;;;;;;5046993;28;20044;-77
2022/10/28 05:25:18;;;;;;;9.23;3.65;;;;;;;;;;5045299;28;20469;-78
2022/10/28 05:27:44;;;;;;;9.48;4.03;;;;;;;;;;5045288;28;20052;-77
2022/10/28 05:30:10;;;;;;;8.38;3.92;;;;;;;;;;5046744;28;20025;-78
2022/10/28 05:32:36;;;;;;;13.90;4.00;;;;;;;;;;5047562;28;20037;-78
2022/10/28 05:35:01;;;;;;;11.05;3.83;;;;;;;;;;5044991;28;20033;-78
2022/10/28 05:37:27;;;;;;;14.82;3.92;;;;;;;;;;5046818;28;20544;-77
2022/10/28 05:39:52;;;;;;;11.10;3.92;;;;;;;;;;5043229;28;20552;-77
2022/10/28 05:42:17;;;;;;;9.63;3.65;;;;;;;;;;5041362;28;20037;-77
2022/10/28 05:44:43;;;;;;;7.05;3.80;;;;;;;;;;5045619;28;20068;-78
2022/10/28 05:47:08;;;;;;;10.73;4.10;;;;;;;;;;5046748;28;20040;-77
2022/10/28 05:49:33;;;;;;;11.63;3.88;;;;;;;;;;5046562;28;20033;-78
2022/10/28 05:51:59;;;;;;;8.68;4.07;;;;;;;;;;5045227;28;20527;-77
2022/10/28 05:54:24;;;;;;;10.40;3.22;;;;;;;;;;5046558;28;20557;-77
2022/10/28 05:56:50;;;;;;;15.60;3.80;;;;;;;;;;5047283;28;20021;-78
2022/10/28 05:59:15;;;;;;;10.90;3.35;;;;;;;;;;5049094;28;20047;-77
2022/10/28 06:01:40;;;;;;;10.10;3.63;;;;;;;;;;5050114;28;20446;-77
2022/10/28 06:04:06;;;;;;;10.02;3.83;;;;;;;;;;5050503;28;20047;-77
2022/10/28 06:06:32;;;;;;;12.25;3.20;;;;;;;;;;5049007;28;20521;-78
2022/10/28 06:08:57;;;;;;;18.58;5.57;;;;;;;;;;5050348;28;20451;-77
2022/10/28 06:11:22;;;;;;;16.63;4.40;;;;;;;;;;5050031;28;20067;-78
2022/10/28 06:13:48;;;;;;;13.95;4.40;;;;;;;;;;5050171;28;20588;-78
2022/10/28 06:16:13;;;;;;;13.48;3.45;;;;;;;;;;5049613;28;20039;-77
2022/10/28 06:18:38;;;;;;;10.27;3.30;;;;;;;;;;5045458;28;20498;-77
2022/10/28 06:21:04;;;;;;;17.75;3.97;;;;;;;;;;5048820;28;20057;-78
2022/10/28 06:23:29;;;;;;;9.55;3.75;;;;;;;;;;5045382;28;20730;-78
2022/10/28 06:25:56;;;;;;;14.60;3.25;;;;;;;;;;5038111;28;20029;-77
2022/10/28 06:28:21;;;;;;;12.68;3.60;;;;;;;;;;5028294;28;20065;-77
2022/10/28 06:30:47;;;;;;;10.93;3.85;;;;;;;;;;5046529;28;20059;-77
2022/10/28 06:33:12;;;;;;;15.35;4.10;;;;;;;;;;5038591;28;20120;-73
2022/10/28 06:35:37;;;;;;;8.50;3.50;;;;;;;;;;5041086;28;20445;-77
2022/10/28 06:38:03;;;;;;;23.75;4.55;;;;;;;;;;5035061;28;20687;-77
2022/10/28 06:40:28;;;;;;;12.75;4.13;;;;;;;;;;5047399;28;20057;-77
2022/10/28 06:43:01;;;;;;;12.48;3.80;;;;;;;;;;5046882;28;20595;-78
2022/10/28 06:45:31;;;;;;;15.68;3.75;;;;;;;;;;5048207;28;20604;-77
2022/10/28 06:47:59;;;;;;;14.68;3.38;;;;;;;;;;5046985;28;20104;-78
2022/10/28 06:50:25;;;;;;;10.68;3.40;;;;;;;;;;5044292;28;20083;-77
2022/10/28 06:52:51;;;;;;;12.30;4.03;;;;;;;;;;5050672;28;20115;-77
2022/10/28 06:55:17;;;;;;;10.15;3.35;;;;;;;;;;5047928;28;20116;-77
2022/10/28 06:57:42;;;;;;;8.75;4.28;;;;;;;;;;5044864;28;20064;-77
2022/10/28 07:00:08;;;;;;;9.02;3.25;;;;;;;;;;5033226;28;20021;-77
2022/10/28 07:02:33;;;;;;;13.73;4.10;;;;;;;;;;5028847;28;20044;-77
2022/10/28 07:04:59;;;;;;;7.63;3.67;;;;;;;;;;5031143;28;20057;-78
2022/10/28 07:07:24;;;;;;;11.18;4.22;;;;;;;;;;5026398;28;20551;-78
2022/10/28 07:09:49;;;;;;;15.60;4.07;;;;;;;;;;5026397;28;20037;-77
2022/10/28 07:12:15;;;;;;;9.75;3.55;;;;;;;;;;5040075;28;20141;-76
2022/10/28 07:14:40;;;;;;;11.90;4.15;;;;;;;;;;5039943;28;20052;-78
2022/10/28 07:17:05;;;;;;;8.07;3.47;;;;;;;;;;5026433;28;20121;-78
2022/10/28 07:19:30;;;;;;;12.50;3.90;;;;;;;;;;5027413;28;20461;-77
2022/10/28 07:21:56;;;;;;;10.70;3.97;;;;;;;;;;5037610;28;20065;-78
2022/10/28 07:24:21;;;;;;;8.82;3.97;;;;;;;;;;5033621;28;20032;-77
2022/10/28 07:26:48;;;;;;;8.75;3.22;;;;;;;;;;5037638;28;20047;-78
2022/10/28 07:29:13;;;;;;;13.60;4.07;;;;;;;;;;5038923;28;20532;-78
2022/10/28 07:31:39;;;;;;;15.95;4.63;;;;;;;;;;5036680;28;20041;-77
2022/10/28 07:34:04;;;;;;;9.45;3.50;;;;;;;;;;5047211;28;20300;-77
2022/10/28 07:36:29;;;;;;;16.02;3.30;;;;;;;;;;5040754;28;20466;-78
2022/10/28 07:38:55;;;;;;;10.98;3.35;;;;;;;;;;5048656;28;20028;-78
2022/10/28 07:41:20;;;;;;;10.23;3.97;;;;;;;;;;5047544;28;20087;-78
2022/10/28 07:43:46;;;;;;;12.15;3.20;;;;;;;;;;5050225;28;20032;-78
2022/10/28 07:46:12;;;;;;;6.43;2.78;;;;;;;;;;5046493;28;20045;-78
2022/10/28 07:48:38;;;;;;;15.32;3.90;;;;;;;;;;5048999;28;20033;-78
2022/10/28 07:51:05;;;;;;;15.38;4.05;;;;;;;;;;5048828;28;20028;-78
2022/10/28 07:53:31;;;;;;;9.88;3.25;;;;;;;;;;5054139;28;20123;-78
2022/10/28 07:55:58;;;;;;;12.43;3.70;;;;;;;;;;5048286;28;20475;-78
2022/10/28 07:58:24;;;;;;;9.65;3.30;;;;;;;;;;5048989;28;20041;-78
2022/10/28 08:00:49;;;;;;;15.98;3.40;;;;;;;;;;5048971;28;20469;-73
2022/10/28 08:03:14;;;;;;;6.18;3.20;;;;;;;;;;5046389;28;20036;-77
2022/10/28 08:05:40;;;;;;;13.50;3.85;;;;;;;;;;5048965;28;20031;-73
2022/10/28 08:08:05;;;;;;;11.77;3.13;;;;;;;;;;5048656;28;20037;-76
2022/10/28 08:10:30;;;;;;;12.80;3.50;;;;;;;;;;5047616;28;20049;-78
2022/10/28 08:12:57;;;;;;;17.73;3.90;;;;;;;;;;5047653;28;20472;-77
2022/10/28 08:15:22;;;;;;;11.68;3.15;;;;;;;;;;5047168;28;20021;-76
2022/10/28 08:17:51;;;;;;;11.95;2.95;;;;;;;;;;5048645;28;20025;-78
2022/10/28 08:20:17;;;;;;;8.07;4.05;;;;;;;;;;5048923;28;20033;-72
2022/10/28 08:22:42;;;;;;;6.30;3.30;;;;;;;;;;5048519;28;20037;-75
2022/10/28 08:25:08;;;;;;;10.75;3.25;;;;;;;;;;5048365;28;20843;-76
2022/10/28 08:27:33;;;;;;;13.82;3.70;;;;;;;;;;5048379;28;20150;-70
2022/10/28 08:29:58;;;;;;;7.70;3.13;;;;;;;;;;5057676;28;20036;-74
2022/10/28 08:32:24;;;;;;;9.45;3.67;;;;;;;;;;5068400;28;20071;-72
2022/10/28 08:34:49;;;;;;;9.70;3.40;;;;;;;;;;5066676;28;20039;-72
2022/10/28 08:37:15;;;;;;;14.88;3.63;;;;;;;;;;5067635;28;20028;-74
2022/10/28 08:39:40;;;;;;;5.45;2.88;;;;;;;;;;5058331;28;20048;-73
2022/10/28 08:42:18;;;;;;;9.07;3.42;;;;;;;;;;5048263;28;20037;-75
2022/10/28 08:45:00;;;;;;;8.10;3.10;;;;;;;;;;5044947;28;20060;-72
2022/10/28 08:47:31;;;;;;;14.07;3.55;;;;;;;;;;5056821;28;20067;-72
2022/10/28 08:50:09;;;;;;;7.03;2.95;;;;;;;;;;5057221;28;20086;-72
2022/10/28 08:52:43;;;;;;;9.25;3.53;;;;;;;;;;5041790;28;20038;-72
2022/10/28 08:55:15;;;;;;;11.10;2.95;;;;;;;;;;5028103;28;20041;-72
2022/10/28 08:57:47;;;;;;;10.23;3.60;;;;;;;;;;5043382;28;20037;-72
2022/10/28 09:00:28;;;;;;;15.00;3.40;;;;;;;;;;5042753;28;20075;-72
2022/10/28 09:03:13;;;;;;;12.40;3.10;;;;;;;;;;5028045;28;20029;-72
2022/10/28 09:05:41;;;;;;;14.43;3.53;;;;;;;;;;5038921;28;20068;-72
2022/10/28 09:08:20;;;;;;;10.15;2.88;;;;;;;;;;5048203;28;20577;-72
2022/10/28 09:10:59;;;;;;;7.82;3.08;;;;;;;;;;5067630;28;20086;-72
2022/10/28 09:13:48;;;;;;;7.00;3.10;;;;;;;;;;5066392;28;20036;-72
2022/10/28 09:16:17;;;;;;;13.32;3.08;;;;;;;;;;5065663;28;20391;-72
2022/10/28 09:18:54;;;;;;;13.60;2.70;;;;;;;;;;5067132;28;20048;-72
2022/10/28 09:21:46;;;;;;;6.65;3.13;;;;;;;;;;5053473;28;20105;-72
2022/10/28 09:24:19;;;;;;;5.95;2.78;;;;;;;;;;5044144;28;20170;-72
2022/10/28 09:26:58;;;;;;;8.85;3.05;;;;;;;;;;5046479;28;20021;-72
2022/10/28 09:29:30;;;;;;;10.15;3.13;;;;;;;;;;5034784;28;20045;-72
2022/10/28 09:32:07;;;;;;;7.80;3.10;;;;;;;;;;5023539;28;20045;-72
2022/10/28 09:34:43;;;;;;;16.30;3.35;;;;;;;;;;5047081;28;20044;-72
2022/10/28 09:37:26;;;;;;;9.93;3.35;;;;;;;;;;5048630;28;20049;-72
2022/10/28 09:40:13;;;;;;;11.93;3.10;;;;;;;;;;5048223;28;20067;-72
2022/10/28 09:42:44;;;;;;;8.07;3.17;;;;;;;;;;5045668;28;20038;-72
2022/10/28 09:45:25;;;;;;;12.75;3.30;;;;;;;;;;5035779;28;20084;-71
2022/10/28 09:47:57;;;;;;;13.60;4.28;;;;;;;;;;5049697;28;20063;-72
2022/10/28 09:50:26;;;;;;;8.80;3.40;;;;;;;;;;5049792;28;20116;-72
2022/10/28 09:53:03;;;;;;;8.90;3.17;;;;;;;;;;5048472;28;20033;-72
2022/10/28 09:55:29;;;;;;;12.18;3.42;;;;;;;;;;5045676;28;20037;-72
2022/10/28 09:57:54;;;;;;;13.00;3.45;;;;;;;;;;5049457;28;20513;-72
2022/10/28 10:00:20;;;;;;;10.38;3.20;;;;;;;;;;5050054;28;20037;-72
2022/10/28 10:02:45;;;;;;;12.13;3.50;;;;;;;;;;5043043;28;20035;-72
2022/10/28 10:05:13;;;;;;;17.30;3.30;;;;;;;;;;5050255;28;20044;-72
2022/10/28 10:07:44;;;;;;;8.38;3.88;;;;;;;;;;5050743;28;20083;-72
2022/10/28 10:10:25;;;;;;;10.02;2.90;;;;;;;;;;5044677;28;20656;-72
2022/10/28 10:12:54;;;;;;;11.85;3.55;;;;;;;;;;5029906;28;20045;-72
2022/10/28 10:15:27;;;;;;;9.57;2.95;;;;;;;;;;5030577;28;20036;-72
2022/10/28 10:17:54;;;;;;;;;;;;;;;;;;5030752;28;20036;-72
2022/10/28 10:20:20;;;;;;;10.57;2.78;;;;;;;;;;5028115;28;19917;-72
2022/10/28 10:22:47;;;;;;;12.50;3.00;;;;;;;;;;5033309;28;20029;-72
2022/10/28 10:25:18;;;;;;;5.40;2.95;;;;;;;;;;5030229;28;20045;-72
2022/10/28 10:27:58;;;;;;;8.27;3.05;;;;;;;;;;5028668;28;20120;-72
2022/10/28 10:30:36;;;;;;;8.88;2.60;;;;;;;;;;5029484;28;20033;-72
2022/10/28 10:33:02;;;;;;;9.15;3.13;;;;;;;;;;5030444;28;20025;-72
2022/10/28 10:35:31;;;;;;;11.60;3.60;;;;;;;;;;5041408;28;20047;-72
2022/10/28 10:37:59;;;;;;;12.07;3.13;;;;;;;;;;5049273;28;20463;-72
2022/10/28 10:40:37;;;;;;;15.48;3.10;;;;;;;;;;5041924;28;20059;-72
2022/10/28 10:43:22;;;;;;;15.80;3.20;;;;;;;;;;5048507;28;20032;-72
2022/10/28 10:46:11;;;;;;;6.72;3.10;;;;;;;;;;5037629;28;20096;-72
2022/10/28 10:48:37;;;;;;;15.55;3.83;;;;;;;;;;5038980;28;20179;-72
2022/10/28 10:51:07;;;;;;;9.77;3.25;;;;;;;;;;5048250;28;20111;-72
2022/10/28 10:53:34;;;;;;;11.25;3.45;;;;;;;;;;5048734;28;20048;-72
2022/10/28 10:56:02;;;;;;;11.60;3.58;;;;;;;;;;5048395;28;20406;-72
2022/10/28 10:58:31;;;;;;;7.03;3.08;;;;;;;;;;5048685;28;20040;-72
2022/10/28 11:00:59;;;;;;;13.48;3.00;;;;;;;;;;5048072;28;20044;-73
2022/10/28 11:03:30;;;;;;;15.38;3.75;;;;;;;;;;5046054;28;20029;-72
2022/10/28 11:05:58;;;;;;;10.55;3.40;;;;;;;;;;5045811;28;20048;-72
2022/10/28 11:08:35;;;;;;;11.73;3.75;;;;;;;;;;5037770;28;20041;-72
2022/10/28 11:11:12;;;;;;;9.25;3.00;;;;;;;;;;5044454;28;20052;-72
2022/10/28 11:13:38;;;;;;;10.20;3.05;;;;;;;;;;5032730;28;20426;-72
2022/10/28 11:16:23;;;;;;;11.77;3.70;;;;;;;;;;5038892;28;20044;-72
2022/10/28 11:18:52;;;;;;;11.27;3.10;;;;;;;;;;5054126;28;20048;-72
2022/10/28 11:21:17;;;;;;;14.27;3.28;;;;;;;;;;5036022;28;20020;-72
2022/10/28 11:24:28;;;;;;;9.38;2.90;;;;;;;;;;5033755;28;20040;-72
2022/10/28 11:27:12;;;;;;;8.30;3.00;;;;;;;;;;5035259;28;20055;-72
2022/10/28 11:29:38;;;;;;;8.27;3.10;;;;;;;;;;5035017;28;20033;-72
2022/10/28 11:32:15;;;;;;;9.98;2.90;;;;;;;;;;5041383;28;20514;-73
2022/10/28 11:34:43;;;;;;;13.75;2.83;;;;;;;;;;5042250;28;20044;-72
2022/10/28 11:37:46;;;;;;;6.53;2.95;;;;;;;;;;5044376;28;20521;-73
2022/10/28 11:40:20;;;;;;;11.25;2.95;;;;;;;;;;5048308;28;20127;-73
2022/10/28 11:43:24;;;;;;;11.68;3.30;;;;;;;;;;5047663;28;20513;-73
2022/10/28 11:46:09;;;;;;;8.57;3.08;;;;;;;;;;5045611;28;20598;-73
2022/10/28 11:48:43;;;;;;;12.98;3.78;;;;;;;;;;5047343;28;20037;-73
2022/10/28 11:51:14;;;;;;;7.10;2.80;;;;;;;;;;5048959;28;20550;-72
2022/10/28 11:53:48;;;;;;;9.77;3.60;;;;;;;;;;5049381;28;20044;-73
2022/10/28 11:56:26;;;;;;;9.60;3.45;;;;;;;;;;5044526;28;20091;-72
2022/10/28 11:59:00;;;;;;;7.68;3.00;;;;;;;;;;5066222;28;20036;-72
2022/10/28 12:01:57;;;;;;;10.73;3.10;;;;;;;;;;5066185;28;20036;-72
2022/10/28 12:04:40;;;;;;;12.10;3.35;;;;;;;;;;5057884;28;20114;-72
2022/10/28 12:07:38;;;;;;;10.48;2.80;;;;;;;;;;5046665;28;20044;-72
2022/10/28 12:10:24;;;;;;;8.38;3.25;;;;;;;;;;5040837;28;20131;-72
2022/10/28 12:13:20;;;;;;;9.35;3.50;;;;;;;;;;5043667;28;20072;-73
2022/10/28 12:15:55;;;;;;;8.63;3.08;;;;;;;;;;5038354;28;20095;-73
2022/10/28 12:18:55;;;;;;;8.70;3.05;;;;;;;;;;5029021;28;20188;-72
2022/10/28 12:21:23;;;;;;;11.82;2.80;;;;;;;;;;5036092;28;20538;-73
2022/10/28 12:23:49;;;;;;;11.07;3.65;;;;;;;;;;5040153;28;20029;-73
2022/10/28 12:26:16;;;;;;;13.75;3.53;;;;;;;;;;5026343;28;20045;-73
2022/10/28 12:28:52;;;;;;;10.77;3.65;;;;;;;;;;5028273;28;20491;-73
2022/10/28 12:31:24;;;;;;;10.93;3.40;;;;;;;;;;5064715;28;20044;-74
2022/10/28 12:33:54;;;;;;;10.80;3.50;;;;;;;;;;5067648;28;20139;-73
2022/10/28 12:36:28;;;;;;;11.27;2.90;;;;;;;;;;5068456;28;20036;-72
2022/10/28 12:39:00;;;;;;;8.13;3.08;;;;;;;;;;5063531;28;20491;-73
2022/10/28 12:41:49;;;;;;;14.47;3.70;;;;;;;;;;5048057;28;20078;-73
2022/10/28 12:44:19;;;;;;;11.48;3.28;;;;;;;;;;5047124;28;20040;-73
2022/10/28 12:46:56;;;;;;;10.55;3.35;;;;;;;;;;5046922;28;20033;-73
2022/10/28 12:49:37;;;;;;;10.13;3.45;;;;;;;;;;5047904;28;20063;-73
2022/10/28 12:52:54;;;;;;;9.90;2.78;;;;;;;;;;5047688;28;20116;-73
2022/10/28 12:55:23;;;;;;;7.35;3.20;;;;;;;;;;5035476;28;20036;-73
2022/10/28 12:58:04;;;;;;;10.57;3.58;;;;;;;;;;5046985;28;20043;-73
2022/10/28 13:00:39;;;;;;;10.50;3.28;;;;;;;;;;5042110;28;20056;-72
2022/10/28 13:03:09;;;;;;;7.30;3.00;;;;;;;;;;5032844;28;20035;-73
2022/10/28 13:05:46;;;;;;;7.65;3.13;;;;;;;;;;5042075;28;20123;-72
2022/10/28 13:08:39;;;;;;;9.45;2.63;;;;;;;;;;5042644;28;20037;-73
2022/10/28 13:11:14;;;;;;;7.65;3.30;;;;;;;;;;5047120;28;20040;-74
2022/10/28 13:13:54;;;;;;;8.95;3.28;;;;;;;;;;5035980;28;20056;-73
2022/10/28 13:16:34;;;;;;;11.65;3.63;;;;;;;;;;5045051;28;20398;-73
2022/10/28 13:19:37;;;;;;;10.45;3.60;;;;;;;;;;5046321;28;20041;-73
2022/10/28 13:22:30;;;;;;;12.52;3.40;;;;;;;;;;5046401;28;20029;-73
2022/10/28 13:25:17;;;;;;;10.73;3.38;;;;;;;;;;5045645;28;20172;-73
2022/10/28 13:27:43;;;;;;;11.15;3.20;;;;;;;;;;5046367;28;20058;-73
2022/10/28 13:30:18;;;;;;;11.00;3.30;;;;;;;;;;5046492;28;20444;-73
2022/10/28 13:32:44;;;;;;;6.63;3.10;;;;;;;;;;5046906;28;20041;-73
2022/10/28 13:35:15;;;;;;;9.63;3.35;;;;;;;;;;5045642;28;20128;-73
2022/10/28 13:37:46;;;;;;;9.05;3.20;;;;;;;;;;5036102;28;20037;-72
2022/10/28 13:40:31;;;;;;;8.10;3.20;;;;;;;;;;5044060;28;20033;-73
2022/10/28 13:42:58;;;;;;;15.27;3.47;;;;;;;;;;5045023;28;20029;-73
2022/10/28 13:45:46;;;;;;;11.05;3.17;;;;;;;;;;5045744;28;20079;-72
2022/10/28 13:48:41;;;;;;;8.68;2.58;;;;;;;;;;5049265;28;20454;-73
2022/10/28 13:51:09;;;;;;;8.75;3.42;;;;;;;;;;5044000;28;20126;-73
2022/10/28 13:53:44;;;;;;;8.10;3.60;;;;;;;;;;5046350;28;20033;-74
2022/10/28 13:56:33;;;;;;;11.05;3.30;;;;;;;;;;5040637;28;20514;-73
2022/10/28 13:59:03;;;;;;;9.75;4.30;;;;;;;;;;5037226;28;20083;-73
2022/10/28 14:01:49;;;;;;;7.47;2.85;;;;;;;;;;5028677;28;20084;-73
2022/10/28 14:04:40;;;;;;;8.68;2.90;;;;;;;;;;5026546;28;20541;-73
2022/10/28 14:07:11;;;;;;;7.28;3.20;;;;;;;;;;5027272;28;20055;-73
2022/10/28 14:09:39;;;;;;;12.93;3.33;;;;;;;;;;5027289;28;20748;-73
2022/10/28 14:12:24;;;;;;;10.27;3.20;;;;;;;;;;5027336;28;20035;-73
2022/10/28 14:14:58;;;;;;;9.57;2.47;;;;;;;;;;5027020;28;20037;-73
2022/10/28 14:17:28;;;;;;;7.95;3.20;;;;;;;;;;5033737;28;20128;-73
2022/10/28 14:19:54;;;;;;;10.55;3.08;;;;;;;;;;5047209;28;20098;-74
2022/10/28 14:22:31;;;;;;;10.15;3.22;;;;;;;;;;5050686;28;20032;-73
2022/10/28 14:24:57;;;;;;;7.57;3.10;;;;;;;;;;5048112;28;20054;-73
2022/10/28 14:27:39;;;;;;;6.95;3.10;;;;;;;;;;5043250;28;20502;-73
2022/10/28 14:30:13;;;;;;;12.07;2.88;;;;;;;;;;5045078;28;20517;-73
2022/10/28 14:32:41;;;;;;;10.55;2.90;;;;;;;;;;5049101;28;20045;-73
2022/10/28 14:35:09;;;;;;;9.50;2.70;;;;;;;;;;5050129;28;20410;-73
2022/10/28 14:37:59;;;;;;;7.07;3.13;;;;;;;;;;5050378;28;20037;-73
2022/10/28 14:40:44;;;;;;;21.70;7.68;;;;;;;;;;5050306;28;20598;-74
2022/10/28 14:43:30;;;;;;;18.15;5.55;;;;;;;;;;5031925;28;20033;-74
2022/10/28 14:45:58;;;;;;;13.13;3.97;;;;;;;;;;5027500;28;20095;-73
2022/10/28 14:48:40;;;;;;;11.45;3.10;;;;;;;;;;5037846;28;20017;-74
2022/10/28 14:51:12;;;;;;;18.10;3.47;;;;;;;;;;5042652;28;20489;-73
2022/10/28 14:53:40;;;;;;;10.93;3.13;;;;;;;;;;5038786;28;20039;-73
2022/10/28 14:56:09;;;;;;;5.70;2.50;;;;;;;;;;5047558;28;20514;-74
2022/10/28 14:58:40;;;;;;;7.78;2.83;;;;;;;;;;5046660;28;20033;-73
2022/10/28 15:01:15;;;;;;;8.15;2.95;;;;;;;;;;5029913;28;20029;-73
2022/10/28 15:03:41;;;;;;;8.50;2.65;;;;;;;;;;5030555;28;20045;-73